Heilwood, Pennsylvania
Current Conditions -  °F | °C
As of 8:55 PM on Monday 20 Oct 2014 (Local Time) from KIDI Reporting Station
Overcast Overcast  
Wind Chill: 50°   Ceiling: 6000
Heat Index: 50°   Visibility: 9mi
Dew Point: 45°   Wind: 3mph
Humidity: 82%   Direction: 250°WSW
Pressure: 29.93"   Gusts: NA
Location:  40.62°N, 78.92°W
Report Text: KIDI 210055Z AUTO 25003KT 9SM FEW028 BKN060 OVC075 10/07 A2993 RMK A01
Loading
Personal Weather Stations






























Interactive Weather Map
Tropical Storm Tracking
New forecast layout! Learn more

10-Day Weather Forecast

Advertisements
Track Severe Weather on mobile